Time;durP1;ratioP1;P1;durP2;ratioP2;P2;SDS_P1;SDS_P2;PMS_P1;PMS_P2;Temp;Humidity;BMP_temperature;BMP_pressure;BME280_temperature;BME280_humidity;BME280_pressure;Samples;Min_cycle;Max_cycle;Signal;HPM_P1;HPM_P2
2021/12/13 00:00:58;;;;;;;23.73;13.27;;;20.90;95.30;;;;;;4158255;28;20045;-66
2021/12/13 00:03:26;;;;;;;26.60;14.30;;;20.80;95.70;;;;;;4160579;28;20061;-67
2021/12/13 00:05:42;;;;;;;22.50;13.60;;;20.90;95.50;;;;;;4160530;28;20530;-66
2021/12/13 00:07:54;;;;;;;24.27;13.45;;;21.00;95.10;;;;;;4160539;28;20060;-66
2021/12/13 00:10:04;;;;;;;25.88;14.25;;;21.00;95.20;;;;;;4164996;28;20076;-66
2021/12/13 00:12:21;;;;;;;25.60;15.00;;;21.10;95.00;;;;;;4162980;28;20033;-66
2021/12/13 00:14:33;;;;;;;27.83;15.20;;;21.10;94.90;;;;;;4165978;28;20060;-66
2021/12/13 00:16:49;;;;;;;29.42;15.65;;;21.10;94.90;;;;;;4160826;28;20041;-66
2021/12/13 00:19:09;;;;;;;24.20;14.57;;;21.10;94.80;;;;;;4160410;28;20096;-66
2021/12/13 00:21:23;;;;;;;26.35;15.25;;;21.30;94.60;;;;;;4157747;28;20049;-66
2021/12/13 00:23:31;;;;;;;26.88;15.32;;;21.20;94.70;;;;;;4161887;28;20061;-66
2021/12/13 00:25:44;;;;;;;25.80;16.70;;;21.20;94.70;;;;;;4161076;28;20502;-66
2021/12/13 00:27:59;;;;;;;29.35;16.90;;;21.00;95.10;;;;;;4157146;28;20537;-66
2021/12/13 00:30:11;;;;;;;30.20;17.65;;;21.00;95.10;;;;;;4159806;28;20073;-66
2021/12/13 00:32:31;;;;;;;26.70;17.67;;;21.10;95.20;;;;;;4159755;28;20055;-66
2021/12/13 00:34:51;;;;;;;31.40;19.25;;;21.00;95.30;;;;;;4160537;28;20443;-66
2021/12/13 00:37:07;;;;;;;30.70;19.27;;;21.20;95.30;;;;;;4175970;28;20049;-66
2021/12/13 00:39:30;;;;;;;28.63;19.45;;;21.40;94.80;;;;;;4156817;28;20056;-66
2021/12/13 00:41:38;;;;;;;26.17;17.88;;;21.40;94.50;;;;;;4175567;28;20065;-66
2021/12/13 00:43:52;;;;;;;28.83;18.77;;;21.30;94.80;;;;;;4162971;28;20042;-66
2021/12/13 00:46:03;;;;;;;27.20;18.33;;;21.30;94.80;;;;;;4160209;28;20111;-66
2021/12/13 00:48:09;;;;;;;26.98;17.52;;;21.40;94.30;;;;;;4161451;28;20511;-66
2021/12/13 00:50:37;;;;;;;27.35;18.48;;;21.40;94.40;;;;;;4160116;28;20049;-66
2021/12/13 00:52:48;;;;;;;26.02;17.42;;;21.40;94.20;;;;;;4161200;28;20049;-66
2021/12/13 00:54:56;;;;;;;27.30;17.60;;;21.30;94.40;;;;;;4157873;28;20385;-66
2021/12/13 00:57:01;;;;;;;25.20;17.80;;;21.20;94.70;;;;;;4161310;28;20136;-66
2021/12/13 00:59:08;;;;;;;29.05;17.88;;;21.30;94.50;;;;;;4161473;28;20133;-66
2021/12/13 01:01:15;;;;;;;26.85;16.83;;;21.30;94.50;;;;;;4158964;28;20033;-66
2021/12/13 01:03:38;;;;;;;27.05;17.05;;;21.50;94.30;;;;;;4159956;28;20246;-66
2021/12/13 01:06:15;;;;;;;26.48;16.90;;;21.50;94.00;;;;;;4159273;28;20041;-65
2021/12/13 01:08:45;;;;;;;28.70;17.05;;;21.50;93.90;;;;;;4161143;28;20042;-64
2021/12/13 01:11:08;;;;;;;28.75;18.45;;;21.70;94.00;;;;;;4160886;28;20053;-64
2021/12/13 01:13:29;;;;;;;32.90;18.85;;;21.80;93.70;;;;;;4162219;28;20037;-65
2021/12/13 01:15:56;;;;;;;51.15;19.30;;;21.90;93.40;;;;;;4161916;28;20480;-65
2021/12/13 01:18:34;;;;;;;33.22;20.05;;;21.90;93.20;;;;;;4161319;28;20448;-65
2021/12/13 01:21:16;;;;;;;27.58;18.58;;;22.00;93.50;;;;;;4160902;28;20042;-65
2021/12/13 01:23:39;;;;;;;26.40;18.23;;;22.00;93.30;;;;;;4162191;28;20108;-65
2021/12/13 01:28:18;;;;;;;25.10;18.40;;;21.70;93.50;;;;;;4148424;28;20040;-65
2021/12/13 01:30:33;;;;;;;27.40;19.38;;;21.70;93.40;;;;;;4150291;28;20462;-66
2021/12/13 01:32:43;;;;;;;31.95;19.02;;;21.90;93.30;;;;;;4148259;28;20045;-66
2021/12/13 01:34:51;;;;;;;23.23;18.00;;;21.90;93.10;;;;;;4152699;28;20037;-66
2021/12/13 01:37:07;;;;;;;25.75;18.33;;;22.00;93.00;;;;;;4147873;28;20057;-67
2021/12/13 01:39:17;;;;;;;32.25;17.77;;;22.10;92.80;;;;;;4145561;28;20100;-66
2021/12/13 01:41:29;;;;;;;25.27;17.83;;;22.10;92.40;;;;;;4147903;28;20136;-65
2021/12/13 01:43:37;;;;;;;29.15;17.42;;;22.00;92.70;;;;;;4146052;28;20562;-65
2021/12/13 01:45:44;;;;;;;28.88;17.58;;;22.10;92.60;;;;;;4145341;28;20463;-67
2021/12/13 01:47:50;;;;;;;28.00;18.02;;;22.20;92.50;;;;;;4149197;28;20049;-66
2021/12/13 01:50:09;;;;;;;29.65;16.73;;;22.20;92.50;;;;;;4148352;28;20049;-64
2021/12/13 01:52:26;;;;;;;22.08;15.55;;;22.40;92.30;;;;;;4145283;28;20597;-65
2021/12/13 01:54:32;;;;;;;19.02;15.75;;;22.50;91.70;;;;;;4148158;28;20068;-65
2021/12/13 01:56:54;;;;;;;22.52;15.85;;;22.50;91.10;;;;;;4152956;28;20080;-66
2021/12/13 01:59:05;;;;;;;27.65;16.45;;;22.50;91.00;;;;;;4163733;28;20037;-64
2021/12/13 02:01:22;;;;;;;20.85;15.40;;;22.70;90.90;;;;;;4162826;28;20136;-65
2021/12/13 02:03:37;;;;;;;23.00;16.58;;;22.70;91.00;;;;;;4162927;28;20069;-65
2021/12/13 02:05:42;;;;;;;29.25;17.45;;;22.70;90.80;;;;;;4179255;28;20519;-65
2021/12/13 02:08:00;;;;;;;31.85;16.33;;;22.80;90.60;;;;;;4181613;28;20052;-65
2021/12/13 02:10:27;;;;;;;48.85;17.85;;;22.90;90.40;;;;;;4162149;28;20422;-66
2021/12/13 02:12:33;;;;;;;26.33;16.08;;;23.00;90.10;;;;;;4166101;28;20057;-65
2021/12/13 02:16:55;;;;;;;30.77;16.60;;;23.00;89.80;;;;;;4165271;28;20048;-65
2021/12/13 02:17:30;;;;;;;27.60;17.50;;;22.90;89.50;;;;;;4163816;28;20136;-64
2021/12/13 02:19:49;;;;;;;23.33;16.38;;;23.00;90.00;;;;;;4161345;28;20053;-64
2021/12/13 02:22:05;;;;;;;29.35;16.55;;;23.00;89.20;;;;;;4163919;28;20064;-67
2021/12/13 02:24:14;;;;;;;23.33;15.98;;;23.10;89.20;;;;;;4161062;28;20046;-65
2021/12/13 02:26:19;;;;;;;25.05;15.90;;;23.20;88.50;;;;;;4160925;28;20104;-65
2021/12/13 02:28:27;;;;;;;22.52;16.80;;;23.20;88.50;;;;;;4165031;28;20136;-65
2021/12/13 02:30:40;;;;;;;24.55;16.33;;;23.20;88.10;;;;;;4160697;28;20053;-65
2021/12/13 02:32:46;;;;;;;23.65;16.08;;;23.20;87.20;;;;;;4159205;28;20064;-65
2021/12/13 02:34:57;;;;;;;21.38;16.95;;;23.30;86.60;;;;;;4158637;28;20045;-65
2021/12/13 02:37:03;;;;;;;20.60;16.45;;;23.30;86.60;;;;;;4150318;28;20044;-65
2021/12/13 02:39:17;;;;;;;21.85;16.30;;;23.40;86.50;;;;;;4154611;28;20494;-65
2021/12/13 02:41:27;;;;;;;23.13;15.63;;;23.50;85.60;;;;;;4159772;28;20068;-65
2021/12/13 02:43:35;;;;;;;19.05;15.82;;;23.50;85.80;;;;;;4159678;28;20042;-65
2021/12/13 02:45:48;;;;;;;27.85;16.75;;;23.40;85.20;;;;;;4160322;28;20037;-65
2021/12/13 02:48:05;;;;;;;20.77;15.70;;;23.40;83.60;;;;;;4161457;28;20398;-65
2021/12/13 02:50:26;;;;;;;20.98;15.10;;;23.50;83.80;;;;;;4161276;28;20062;-65
2021/12/13 02:52:33;;;;;;;21.35;15.98;;;23.60;83.40;;;;;;4160555;28;20054;-66
2021/12/13 02:54:41;;;;;;;24.25;16.02;;;23.60;82.20;;;;;;4162288;28;20419;-64
2021/12/13 02:56:49;;;;;;;63.35;19.40;;;23.70;81.60;;;;;;4162961;28;20044;-65
2021/12/13 02:58:56;;;;;;;30.67;16.80;;;23.90;81.80;;;;;;4161824;28;20072;-65
2021/12/13 03:01:09;;;;;;;20.00;16.70;;;24.00;81.30;;;;;;4163687;28;20482;-65
2021/12/13 03:03:18;;;;;;;21.05;15.80;;;24.10;80.40;;;;;;4163598;28;20511;-65
2021/12/13 03:05:36;;;;;;;22.80;15.88;;;24.00;81.20;;;;;;4159497;28;20045;-65
2021/12/13 03:07:47;;;;;;;24.42;16.40;;;24.20;81.10;;;;;;4159664;28;20615;-65
2021/12/13 03:09:55;;;;;;;24.17;16.45;;;24.20;81.20;;;;;;4165210;28;20041;-65
2021/12/13 03:12:16;;;;;;;22.95;16.77;;;24.20;80.40;;;;;;4163355;28;20041;-65
2021/12/13 03:14:27;;;;;;;20.20;16.23;;;24.20;80.20;;;;;;4162251;28;20116;-65
2021/12/13 03:16:52;;;;;;;26.42;16.70;;;24.20;80.60;;;;;;4164056;28;20053;-65
2021/12/13 03:19:08;;;;;;;168.05;30.23;;;24.20;80.60;;;;;;4157241;28;20052;-65
2021/12/13 03:21:42;;;;;;;131.75;28.73;;;24.20;80.60;;;;;;4160824;28;20101;-65
2021/12/13 03:24:06;;;;;;;45.90;20.27;;;24.30;80.60;;;;;;4161058;28;20136;-65
2021/12/13 03:26:27;;;;;;;105.97;24.00;;;24.40;81.10;;;;;;4160555;28;20043;-65
2021/12/13 03:28:51;;;;;;;34.50;18.35;;;24.40;79.90;;;;;;4158231;28;20381;-65
2021/12/13 03:31:13;;;;;;;57.53;20.10;;;24.40;80.70;;;;;;4162380;28;20091;-65
2021/12/13 03:33:20;;;;;;;40.30;19.50;;;24.50;80.40;;;;;;4159720;28;20048;-65
2021/12/13 03:35:52;;;;;;;23.00;17.42;;;24.50;80.50;;;;;;4159079;28;20045;-66
2021/12/13 03:38:00;;;;;;;27.33;18.08;;;24.50;80.60;;;;;;4162055;28;20065;-66
2021/12/13 03:40:20;;;;;;;25.50;18.02;;;24.60;80.40;;;;;;4160055;28;20045;-66
2021/12/13 03:42:31;;;;;;;24.80;17.55;;;24.60;79.90;;;;;;4162952;28;20319;-66
2021/12/13 03:44:47;;;;;;;27.60;17.70;;;24.60;79.30;;;;;;4159385;28;20108;-66
2021/12/13 03:46:57;;;;;;;21.05;16.83;;;24.60;79.40;;;;;;4162067;28;20081;-67
2021/12/13 03:49:21;;;;;;;21.65;16.80;;;24.60;79.70;;;;;;4160884;28;20068;-67
2021/12/13 03:51:34;;;;;;;24.77;18.45;;;24.80;79.60;;;;;;4127731;28;20487;-67
2021/12/13 03:53:40;;;;;;;26.70;18.83;;;24.80;79.30;;;;;;4142313;28;20451;-67
2021/12/13 03:55:49;;;;;;;22.33;17.00;;;24.70;79.10;;;;;;4146573;28;20136;-67
2021/12/13 03:57:59;;;;;;;31.63;17.52;;;24.60;79.40;;;;;;4157832;28;20469;-67
2021/12/13 04:00:06;;;;;;;22.55;17.52;;;24.70;78.90;;;;;;4160400;28;20049;-66
2021/12/13 04:02:23;;;;;;;23.63;16.42;;;24.80;77.70;;;;;;4162695;28;20095;-66
2021/12/13 04:04:41;;;;;;;23.58;16.67;;;24.90;77.20;;;;;;4161513;28;20041;-66
2021/12/13 04:06:52;;;;;;;22.27;17.00;;;25.00;76.40;;;;;;4163892;28;20037;-66
2021/12/13 04:08:58;;;;;;;22.27;16.73;;;25.00;76.50;;;;;;4162388;28;20045;-67
2021/12/13 04:11:07;;;;;;;21.38;15.93;;;25.10;75.90;;;;;;4167674;28;20535;-66
2021/12/13 04:13:15;;;;;;;24.50;16.38;;;25.10;75.90;;;;;;4167748;28;20091;-67
2021/12/13 04:15:48;;;;;;;19.45;15.15;;;25.10;76.10;;;;;;4159557;28;20099;-67
2021/12/13 04:20:04;;;;;;;27.65;16.50;;;25.20;75.70;;;;;;4168959;28;20080;-67
2021/12/13 04:22:09;;;;;;;21.77;16.02;;;25.20;75.50;;;;;;4174846;28;20483;-67
2021/12/13 04:24:20;;;;;;;22.30;16.08;;;25.30;75.60;;;;;;4200069;28;20041;-67
2021/12/13 04:26:26;;;;;;;22.23;16.52;;;25.40;76.10;;;;;;4200455;28;20074;-67
2021/12/13 04:28:47;;;;;;;20.20;15.85;;;25.40;76.40;;;;;;4202737;28;20444;-67
2021/12/13 04:30:56;;;;;;;20.35;15.65;;;25.60;75.50;;;;;;4203146;28;20048;-67
2021/12/13 04:33:06;;;;;;;18.30;15.52;;;25.60;74.80;;;;;;4192952;28;20037;-67
2021/12/13 04:35:12;;;;;;;21.15;15.75;;;25.50;74.50;;;;;;4158109;28;20496;-67
2021/12/13 04:37:21;;;;;;;19.30;15.50;;;25.50;74.20;;;;;;4157859;28;20508;-67
2021/12/13 04:39:34;;;;;;;17.35;15.48;;;25.40;74.10;;;;;;4156150;28;20438;-67
2021/12/13 04:41:44;;;;;;;;;;;25.40;73.30;;;;;;4158794;28;20547;-67
2021/12/13 04:43:49;;;;;;;19.65;15.98;;;25.40;74.00;;;;;;4157569;28;20262;-67
2021/12/13 04:45:58;;;;;;;22.13;16.33;;;25.40;74.80;;;;;;4157787;28;20361;-67
2021/12/13 04:48:06;;;;;;;23.08;17.58;;;25.50;75.00;;;;;;4160875;28;20065;-67
2021/12/13 04:50:24;;;;;;;18.95;16.15;;;25.50;74.80;;;;;;4158673;28;20677;-67
2021/12/13 04:52:28;;;;;;;19.23;15.82;;;25.60;73.80;;;;;;4160852;28;20076;-67
2021/12/13 04:54:34;;;;;;;21.48;15.48;;;25.50;74.50;;;;;;4157569;28;20072;-67
2021/12/13 04:56:39;;;;;;;24.00;16.52;;;25.50;74.50;;;;;;4161417;28;20563;-67
2021/12/13 04:58:46;;;;;;;18.45;16.33;;;25.60;74.60;;;;;;4159939;28;20033;-67
2021/12/13 05:00:55;;;;;;;19.60;16.60;;;25.70;73.50;;;;;;4161423;28;20042;-67
2021/12/13 05:03:02;;;;;;;23.13;16.67;;;25.70;73.90;;;;;;4160113;28;20132;-67
2021/12/13 05:05:07;;;;;;;20.55;15.93;;;25.80;74.00;;;;;;4160242;28;20041;-67
2021/12/13 05:07:12;;;;;;;18.98;15.27;;;25.80;74.40;;;;;;4160487;28;20049;-67
2021/12/13 05:09:19;;;;;;;20.13;16.35;;;25.90;74.00;;;;;;4162210;28;20511;-67
2021/12/13 05:11:30;;;;;;;19.73;15.98;;;25.90;73.90;;;;;;4161336;28;20073;-67
2021/12/13 05:13:40;;;;;;;26.52;17.02;;;25.80;73.10;;;;;;4157759;28;20113;-67
2021/12/13 05:16:09;;;;;;;23.98;16.98;;;25.90;73.60;;;;;;4160396;28;20073;-67
2021/12/13 05:18:20;;;;;;;22.15;17.20;;;26.00;73.50;;;;;;4158839;28;20455;-67
2021/12/13 05:20:28;;;;;;;22.73;16.17;;;26.10;73.40;;;;;;4161150;28;20030;-66
2021/12/13 05:22:51;;;;;;;21.08;16.42;;;26.20;72.70;;;;;;4160264;28;20069;-66
2021/12/13 05:25:01;;;;;;;18.48;16.20;;;26.20;72.80;;;;;;4160329;28;20462;-66
2021/12/13 05:27:12;;;;;;;23.88;17.40;;;26.20;71.90;;;;;;4161092;28;20052;-66
2021/12/13 05:29:36;;;;;;;20.65;16.98;;;26.20;72.50;;;;;;4161156;28;20037;-66
2021/12/13 05:31:41;;;;;;;24.45;16.58;;;26.20;72.30;;;;;;4161236;28;20488;-65
2021/12/13 05:33:50;;;;;;;24.20;17.85;;;26.30;72.50;;;;;;4143371;28;20045;-66
2021/12/13 05:35:57;;;;;;;23.83;17.15;;;26.30;72.70;;;;;;4145311;28;20074;-66
2021/12/13 05:38:06;;;;;;;23.13;17.27;;;26.30;72.10;;;;;;4141894;28;20089;-66
2021/12/13 05:40:16;;;;;;;23.50;17.17;;;26.30;71.90;;;;;;4142063;28;20301;-66
2021/12/13 05:42:33;;;;;;;;;;;26.30;72.40;;;;;;4141646;28;20050;-66
2021/12/13 05:44:44;;;;;;;26.43;16.93;;;26.30;71.90;;;;;;4141620;28;20003;-66
2021/12/13 05:46:53;;;;;;;18.27;16.17;;;26.40;72.20;;;;;;4143708;28;20324;-66
2021/12/13 05:49:02;;;;;;;26.52;17.38;;;26.40;72.60;;;;;;4143813;28;20053;-66
2021/12/13 05:51:22;;;;;;;23.27;16.40;;;26.50;72.30;;;;;;4126488;28;20054;-66
2021/12/13 05:53:35;;;;;;;21.58;16.98;;;26.50;71.80;;;;;;4127153;28;20064;-67
2021/12/13 05:55:53;;;;;;;23.40;15.70;;;26.60;71.60;;;;;;4138542;28;20046;-65
2021/12/13 05:57:59;;;;;;;22.02;16.08;;;26.60;71.90;;;;;;4147766;28;20072;-66
2021/12/13 06:00:11;;;;;;;24.75;16.73;;;26.60;71.40;;;;;;4143753;28;20100;-67
2021/12/13 06:02:20;;;;;;;23.40;15.95;;;26.70;71.80;;;;;;4141452;28;20049;-66
2021/12/13 06:04:50;;;;;;;21.83;16.63;;;26.70;71.40;;;;;;4128129;28;20050;-66
2021/12/13 06:06:55;;;;;;;20.17;15.93;;;26.90;70.90;;;;;;4147561;28;20045;-66
2021/12/13 06:09:00;;;;;;;19.17;16.23;;;26.90;71.10;;;;;;4128688;28;20054;-66
2021/12/13 06:11:09;;;;;;;25.98;16.52;;;27.00;71.60;;;;;;4141101;28;20725;-66
2021/12/13 06:13:39;;;;;;;20.98;16.60;;;27.00;70.60;;;;;;4160597;28;20048;-66
2021/12/13 06:15:45;;;;;;;25.73;16.63;;;27.00;70.50;;;;;;4162900;28;20042;-67
2021/12/13 06:18:01;;;;;;;19.98;16.52;;;27.00;70.70;;;;;;4163253;28;20041;-66
2021/12/13 06:20:13;;;;;;;23.17;18.27;;;27.00;70.40;;;;;;4163009;28;20045;-66
2021/12/13 06:22:21;;;;;;;26.75;18.05;;;27.00;71.10;;;;;;4163447;28;20608;-66
2021/12/13 06:24:37;;;;;;;28.63;17.35;;;27.10;71.80;;;;;;4162931;28;20057;-66
2021/12/13 06:26:41;;;;;;;21.98;17.77;;;27.00;71.50;;;;;;4161894;28;20045;-65
2021/12/13 06:28:54;;;;;;;19.67;16.90;;;27.00;70.90;;;;;;4162269;28;20160;-65
2021/12/13 06:31:03;;;;;;;22.10;17.55;;;27.00;71.00;;;;;;4162411;28;20041;-65
2021/12/13 06:33:10;;;;;;;28.75;18.00;;;27.10;71.00;;;;;;4159448;28;20140;-66
2021/12/13 06:35:27;;;;;;;21.33;18.10;;;27.00;70.10;;;;;;4162229;28;20133;-65
2021/12/13 06:37:35;;;;;;;21.10;18.05;;;27.00;70.10;;;;;;4162449;28;20136;-65
2021/12/13 06:39:41;;;;;;;24.08;18.38;;;27.10;70.00;;;;;;4162863;28;20099;-64
2021/12/13 06:41:50;;;;;;;25.00;19.58;;;27.00;70.50;;;;;;4161987;28;20124;-65
2021/12/13 06:44:15;;;;;;;23.13;16.98;;;26.90;70.50;;;;;;4165962;28;20063;-65
2021/12/13 06:46:23;;;;;;;20.85;17.15;;;27.00;70.20;;;;;;4162901;28;20073;-65
2021/12/13 06:48:49;;;;;;;26.85;18.88;;;27.00;69.90;;;;;;4162725;28;20056;-65
2021/12/13 06:50:54;;;;;;;23.90;18.52;;;27.00;70.10;;;;;;4162123;28;20049;-65
2021/12/13 06:53:10;;;;;;;23.02;18.35;;;27.00;70.80;;;;;;4162337;28;20068;-65
2021/12/13 06:55:19;;;;;;;25.48;17.90;;;27.00;70.80;;;;;;4159352;28;20049;-65
2021/12/13 06:57:36;;;;;;;22.60;18.35;;;27.00;70.60;;;;;;4157193;28;20044;-66
2021/12/13 07:00:00;;;;;;;23.45;18.65;;;27.00;70.60;;;;;;4159064;28;20076;-66
2021/12/13 07:02:19;;;;;;;22.48;18.15;;;27.10;71.30;;;;;;4158339;28;20574;-65
2021/12/13 07:04:26;;;;;;;26.70;19.17;;;27.20;70.70;;;;;;4159736;28;20380;-65
2021/12/13 07:06:31;;;;;;;26.40;18.23;;;27.20;70.10;;;;;;4141560;28;20054;-65
2021/12/13 07:08:37;;;;;;;24.98;19.05;;;27.10;70.00;;;;;;4141691;28;20046;-65
2021/12/13 07:10:46;;;;;;;20.95;17.90;;;27.10;70.20;;;;;;4141577;28;20046;-65
2021/12/13 07:12:54;;;;;;;24.73;18.85;;;27.10;70.30;;;;;;4140096;28;20052;-65
2021/12/13 07:15:00;;;;;;;23.35;19.38;;;27.10;70.80;;;;;;4139984;28;20140;-66
2021/12/13 07:17:12;;;;;;;24.15;18.80;;;27.30;70.70;;;;;;4140829;28;20038;-65
2021/12/13 07:19:21;;;;;;;21.58;18.13;;;27.30;70.00;;;;;;4139838;28;20165;-65
2021/12/13 07:21:30;;;;;;;23.65;18.05;;;27.30;69.70;;;;;;4141537;28;20492;-66
2021/12/13 07:24:08;;;;;;;19.38;17.38;;;27.30;69.20;;;;;;4138747;28;20839;-65
2021/12/13 07:26:27;;;;;;;22.40;17.10;;;27.30;69.30;;;;;;4140933;28;20054;-65
2021/12/13 07:28:35;;;;;;;21.67;17.75;;;27.20;69.20;;;;;;4140856;28;20144;-65
2021/12/13 07:30:42;;;;;;;21.45;16.88;;;27.30;69.30;;;;;;4139019;28;20508;-65
2021/12/13 07:32:57;;;;;;;21.23;17.50;;;27.30;69.50;;;;;;4141625;28;20076;-65
2021/12/13 07:35:16;;;;;;;24.58;18.27;;;27.30;69.40;;;;;;4141322;28;20052;-66
2021/12/13 07:37:45;;;;;;;25.00;17.95;;;27.30;69.60;;;;;;4146435;28;20466;-66
2021/12/13 07:39:51;;;;;;;25.70;18.40;;;27.20;70.00;;;;;;4159066;28;20061;-65
2021/12/13 07:42:00;;;;;;;23.90;18.35;;;27.30;69.70;;;;;;4160040;28;20045;-64
2021/12/13 07:44:07;;;;;;;24.58;18.90;;;27.30;69.70;;;;;;4158402;28;20124;-65
2021/12/13 07:46:22;;;;;;;24.52;18.52;;;27.30;69.70;;;;;;4159734;28;20458;-65
2021/12/13 07:48:33;;;;;;;20.40;17.83;;;27.30;69.60;;;;;;4158629;28;20068;-65
2021/12/13 07:50:38;;;;;;;24.73;18.33;;;27.30;69.60;;;;;;4156892;28;20506;-65
2021/12/13 07:52:44;;;;;;;22.10;18.20;;;27.40;69.50;;;;;;4159978;28;20075;-65
2021/12/13 07:54:49;;;;;;;25.85;18.58;;;27.30;70.20;;;;;;4159897;28;20041;-64
2021/12/13 07:56:58;;;;;;;26.13;17.92;;;27.30;69.80;;;;;;4159616;28;20765;-64
2021/12/13 07:59:16;;;;;;;26.33;18.80;;;27.30;69.50;;;;;;4158226;28;20439;-64
2021/12/13 08:01:25;;;;;;;24.60;18.83;;;27.30;69.70;;;;;;4157583;28;20393;-64
2021/12/13 08:03:49;;;;;;;26.38;18.85;;;27.40;69.70;;;;;;4159088;28;20139;-64
2021/12/13 08:05:53;;;;;;;23.58;18.90;;;27.40;70.40;;;;;;4158270;28;20489;-64
2021/12/13 08:08:00;;;;;;;23.52;19.85;;;27.50;69.60;;;;;;4158122;28;20088;-65
2021/12/13 08:10:28;;;;;;;23.83;17.77;;;27.40;69.80;;;;;;4158213;28;20416;-65
2021/12/13 08:12:43;;;;;;;24.48;18.83;;;27.40;69.70;;;;;;4161761;28;20073;-64
2021/12/13 08:14:50;;;;;;;24.70;19.55;;;27.40;69.60;;;;;;4160699;28;20052;-64
2021/12/13 08:16:59;;;;;;;28.35;18.98;;;27.40;70.20;;;;;;4161623;28;20041;-65
2021/12/13 08:19:08;;;;;;;27.27;18.65;;;27.40;69.50;;;;;;4126329;28;20125;-65
2021/12/13 08:21:26;;;;;;;28.30;19.45;;;27.40;69.30;;;;;;4140944;28;20512;-65
2021/12/13 08:23:35;;;;;;;25.88;18.95;;;27.40;69.60;;;;;;4143996;28;20042;-65
2021/12/13 08:25:40;;;;;;;27.48;19.30;;;27.50;70.10;;;;;;4144073;28;20069;-65
2021/12/13 08:28:12;;;;;;;22.80;18.88;;;27.40;69.80;;;;;;4114816;28;20054;-65
2021/12/13 08:30:31;;;;;;;21.83;18.48;;;27.50;69.60;;;;;;4141875;28;20054;-65
2021/12/13 08:32:36;;;;;;;24.70;18.58;;;27.50;69.70;;;;;;4141771;28;20046;-66
2021/12/13 08:34:44;;;;;;;25.40;18.85;;;27.40;69.70;;;;;;4142580;28;20054;-66
2021/12/13 08:36:51;;;;;;;24.20;17.95;;;27.50;69.80;;;;;;4142018;28;20071;-65
2021/12/13 08:39:09;;;;;;;21.05;18.52;;;27.40;69.60;;;;;;4142804;28;20050;-65
2021/12/13 08:41:18;;;;;;;32.65;18.48;;;27.40;69.70;;;;;;4143510;28;20056;-65
2021/12/13 08:43:45;;;;;;;27.35;17.40;;;27.40;69.90;;;;;;4150761;28;20076;-66
2021/12/13 08:45:53;;;;;;;23.85;18.80;;;27.40;69.50;;;;;;4127364;28;20050;-66
2021/12/13 08:48:07;;;;;;;23.55;18.05;;;27.40;69.70;;;;;;4128153;28;20571;-65
2021/12/13 08:50:26;;;;;;;26.60;18.73;;;27.40;69.80;;;;;;4143081;28;20041;-65
2021/12/13 08:52:34;;;;;;;24.60;18.58;;;27.40;69.80;;;;;;4143471;28;20065;-66
2021/12/13 08:55:01;;;;;;;23.05;18.77;;;27.40;69.80;;;;;;4143052;28;20048;-66
2021/12/13 08:57:09;;;;;;;26.58;19.92;;;27.40;69.90;;;;;;4153898;28;20053;-66
2021/12/13 08:59:23;;;;;;;32.45;19.70;;;27.40;70.00;;;;;;4159890;28;20034;-66
2021/12/13 09:01:29;;;;;;;25.60;19.52;;;27.40;70.10;;;;;;4159140;28;20049;-66
2021/12/13 09:03:34;;;;;;;27.67;18.92;;;27.40;70.00;;;;;;4141939;28;20145;-66
2021/12/13 09:05:50;;;;;;;21.25;17.95;;;27.40;70.30;;;;;;4140720;28;20667;-66
2021/12/13 09:08:00;;;;;;;23.50;19.08;;;27.30;70.30;;;;;;4141031;28;20471;-66
2021/12/13 09:10:06;;;;;;;29.48;19.88;;;27.30;70.60;;;;;;4140565;28;20095;-65
2021/12/13 09:12:14;;;;;;;24.35;19.38;;;27.30;71.00;;;;;;4137982;28;20053;-65
2021/12/13 09:14:25;;;;;;;25.92;19.13;;;27.20;70.10;;;;;;4156818;28;20037;-65
2021/12/13 09:17:16;;;;;;;22.27;18.98;;;27.10;70.30;;;;;;4152105;28;20057;-65
2021/12/13 09:19:27;;;;;;;24.70;19.30;;;27.10;70.50;;;;;;4131294;28;20225;-65
2021/12/13 09:21:32;;;;;;;28.55;18.80;;;27.00;70.80;;;;;;4131157;28;20559;-66
2021/12/13 09:23:47;;;;;;;28.65;20.15;;;27.00;70.90;;;;;;4124738;28;20168;-66
2021/12/13 09:26:02;;;;;;;23.90;19.70;;;27.00;71.10;;;;;;4124320;28;20799;-66
2021/12/13 09:28:16;;;;;;;24.60;19.73;;;27.00;71.30;;;;;;4124189;28;20058;-66
2021/12/13 09:30:30;;;;;;;27.98;21.25;;;27.00;71.30;;;;;;4117564;28;20058;-66
2021/12/13 09:32:37;;;;;;;25.73;20.20;;;27.00;71.30;;;;;;4139983;28;20049;-66
2021/12/13 09:34:44;;;;;;;28.33;21.67;;;27.00;71.30;;;;;;4151275;28;20077;-66
2021/12/13 09:36:51;;;;;;;29.08;21.25;;;27.00;71.40;;;;;;4161890;28;20041;-66
2021/12/13 09:39:17;;;;;;;25.23;19.88;;;27.00;71.20;;;;;;4162657;28;20053;-66
2021/12/13 09:41:27;;;;;;;35.42;19.55;;;27.00;71.00;;;;;;4156507;28;20276;-64
2021/12/13 09:43:37;;;;;;;27.13;18.70;;;27.00;71.40;;;;;;4161096;28;20526;-64
2021/12/13 09:45:47;;;;;;;34.03;19.75;;;27.00;71.50;;;;;;4161810;28;20053;-64
2021/12/13 09:47:51;;;;;;;32.35;19.70;;;27.00;71.50;;;;;;4162639;28;20132;-64
2021/12/13 09:49:56;;;;;;;21.83;18.55;;;27.00;71.50;;;;;;4162352;28;20049;-65
2021/12/13 09:52:12;;;;;;;27.20;19.05;;;26.90;71.60;;;;;;4161315;28;20111;-65
2021/12/13 09:54:19;;;;;;;26.90;18.83;;;26.90;71.50;;;;;;4161824;28;20049;-65
2021/12/13 09:56:25;;;;;;;23.58;18.63;;;26.90;71.60;;;;;;4160685;28;20044;-65
2021/12/13 09:58:55;;;;;;;22.63;19.27;;;26.90;71.50;;;;;;4161755;28;20701;-66
2021/12/13 10:01:09;;;;;;;25.60;19.38;;;26.90;71.60;;;;;;4161876;28;20046;-65
2021/12/13 10:03:26;;;;;;;26.05;20.25;;;26.90;71.80;;;;;;4160258;28;20425;-65
2021/12/13 10:05:35;;;;;;;24.95;19.95;;;26.80;71.80;;;;;;4161751;28;20140;-65
2021/12/13 10:07:40;;;;;;;28.95;21.52;;;26.80;72.00;;;;;;4160745;28;20671;-65
2021/12/13 10:09:55;;;;;;;31.05;22.20;;;26.90;72.20;;;;;;4159653;28;20046;-65
2021/12/13 10:12:15;;;;;;;30.33;22.27;;;26.80;72.40;;;;;;4158699;28;20054;-65
2021/12/13 10:14:25;;;;;;;29.85;22.55;;;26.80;72.40;;;;;;4160242;28;20151;-64
2021/12/13 10:16:32;;;;;;;50.58;30.25;;;26.80;72.60;;;;;;4160278;28;20041;-65
2021/12/13 10:18:41;;;;;;;66.57;41.10;;;26.70;72.50;;;;;;4161072;28;20049;-66
2021/12/13 10:20:50;;;;;;;67.20;41.83;;;26.70;72.60;;;;;;4159375;28;20577;-66
2021/12/13 10:22:56;;;;;;;72.07;44.53;;;26.70;73.00;;;;;;4160435;28;20046;-65
2021/12/13 10:25:24;;;;;;;63.78;39.15;;;26.60;73.20;;;;;;4157052;28;20440;-67
2021/12/13 10:27:29;;;;;;;57.80;36.78;;;26.60;73.10;;;;;;4159354;28;20543;-66
2021/12/13 10:29:34;;;;;;;51.63;34.30;;;26.60;73.40;;;;;;4160677;28;20432;-66
2021/12/13 10:31:48;;;;;;;53.33;33.42;;;26.60;73.70;;;;;;4160968;28;20049;-65
2021/12/13 10:33:54;;;;;;;46.97;30.15;;;26.50;73.90;;;;;;4159650;28;20049;-65
2021/12/13 10:36:02;;;;;;;45.50;27.52;;;26.50;74.00;;;;;;4158432;28;20132;-65
2021/12/13 10:38:15;;;;;;;37.92;26.42;;;26.50;74.20;;;;;;4157205;28;20085;-65
2021/12/13 10:40:25;;;;;;;37.47;24.42;;;26.50;74.30;;;;;;4158241;28;20111;-65
2021/12/13 10:42:35;;;;;;;34.97;24.30;;;26.40;74.20;;;;;;4156977;28;20523;-66
2021/12/13 10:44:44;;;;;;;32.53;23.85;;;26.40;74.60;;;;;;4157942;28;20565;-65
2021/12/13 10:46:50;;;;;;;38.00;23.33;;;26.40;74.70;;;;;;4156585;28;20144;-65
2021/12/13 10:49:01;;;;;;;38.22;23.60;;;26.40;74.80;;;;;;4160321;28;20053;-64
2021/12/13 10:51:07;;;;;;;38.85;23.17;;;26.40;74.90;;;;;;4158301;28;20584;-65
2021/12/13 10:53:13;;;;;;;32.33;22.95;;;26.40;75.10;;;;;;4158530;28;20073;-65
2021/12/13 10:55:34;;;;;;;38.10;23.25;;;26.40;75.20;;;;;;4158434;28;20732;-64
2021/12/13 10:57:43;;;;;;;34.22;23.98;;;26.30;75.10;;;;;;4156658;28;20246;-64
2021/12/13 10:59:49;;;;;;;37.13;28.45;;;26.30;75.30;;;;;;4156644;28;20037;-63
2021/12/13 11:01:57;;;;;;;45.28;31.92;;;26.30;75.40;;;;;;4157721;28;20050;-62
2021/12/13 11:04:06;;;;;;;58.28;41.22;;;26.30;75.60;;;;;;4155860;28;20125;-63
2021/12/13 11:06:15;;;;;;;106.70;74.10;;;26.30;75.70;;;;;;4156332;28;20041;-64
2021/12/13 11:08:20;;;;;;;90.78;62.47;;;26.20;75.80;;;;;;4157878;28;20527;-65
2021/12/13 11:10:35;;;;;;;98.72;68.70;;;26.20;75.90;;;;;;4155656;28;20050;-65
2021/12/13 11:13:00;;;;;;;95.47;61.55;;;26.20;76.10;;;;;;4157636;28;20037;-65
2021/12/13 11:15:08;;;;;;;79.53;56.58;;;26.20;76.40;;;;;;4157536;28;20433;-63
2021/12/13 11:17:17;;;;;;;100.00;67.80;;;26.20;76.60;;;;;;4156501;28;20041;-64
2021/12/13 11:19:27;;;;;;;97.63;69.65;;;26.10;77.00;;;;;;4157649;28;20053;-64